Time;durP1;ratioP1;P1;durP2;ratioP2;P2;SDS_P1;SDS_P2;PMS_P1;PMS_P2;Temp;Humidity;BMP_temperature;BMP_pressure;BME280_temperature;BME280_humidity;BME280_pressure;Samples;Min_cycle;Max_cycle;Signal;HPM_P1;HPM_P2
2022/01/12 00:00:25;;;;;;;147.30;60.05;;;;;;;3.07;100.00;103420.97;4917388;28;20101;-75
2022/01/12 00:02:51;;;;;;;134.20;59.70;;;;;;;3.02;100.00;103424.88;4923765;28;20035;-75
2022/01/12 00:05:18;;;;;;;152.52;61.38;;;;;;;2.97;100.00;103419.88;4908514;28;20051;-75
2022/01/12 00:07:43;;;;;;;148.95;62.88;;;;;;;3.05;100.00;103420.25;4924745;28;20031;-75
2022/01/12 00:10:09;;;;;;;141.20;61.22;;;;;;;3.06;100.00;103424.59;4906082;28;20059;-75
2022/01/12 00:12:35;;;;;;;152.82;63.05;;;;;;;3.05;100.00;103425.56;4923936;28;20105;-75
2022/01/12 00:15:00;;;;;;;157.07;62.85;;;;;;;3.08;100.00;103420.03;4925779;28;20038;-75
2022/01/12 00:17:26;;;;;;;150.63;62.83;;;;;;;3.07;100.00;103423.66;4909107;28;20058;-74
2022/01/12 00:19:51;;;;;;;164.52;63.92;;;;;;;3.06;100.00;103419.28;4923473;28;20039;-74
2022/01/12 00:22:17;;;;;;;161.50;64.88;;;;;;;3.06;100.00;103411.28;4910385;28;20043;-74
2022/01/12 00:33:10;;;;;;;174.98;62.50;;;;;;;3.00;100.00;103398.38;4925589;28;20089;-75
2022/01/12 00:35:40;;;;;;;163.85;60.63;;;;;;;3.03;100.00;103392.00;4909889;28;22439;-75
2022/01/12 00:38:06;;;;;;;187.73;64.53;;;;;;;3.07;100.00;103383.69;4926407;28;20022;-75
2022/01/12 00:40:32;;;;;;;185.05;66.35;;;;;;;3.17;100.00;103383.09;4909629;28;20138;-75
2022/01/12 00:42:58;;;;;;;168.77;63.95;;;;;;;3.13;100.00;103384.25;4926363;28;20541;-77
2022/01/12 00:45:24;;;;;;;186.75;63.35;;;;;;;3.06;100.00;103382.00;4908251;28;20097;-75
2022/01/12 00:47:49;;;;;;;191.68;64.85;;;;;;;3.08;100.00;103380.06;4909377;28;20774;-75
2022/01/12 00:50:14;;;;;;;178.10;66.95;;;;;;;3.03;100.00;103374.22;4925022;28;20046;-75
2022/01/12 00:52:40;;;;;;;189.82;65.88;;;;;;;3.08;100.00;103384.53;4891492;28;20522;-75
2022/01/12 00:55:06;;;;;;;176.60;65.75;;;;;;;3.10;100.00;103388.81;4924754;28;20081;-75
2022/01/12 00:57:32;;;;;;;183.80;65.72;;;;;;;3.14;100.00;103391.28;4923523;28;20081;-77
2022/01/12 00:59:57;;;;;;;200.90;65.78;;;;;;;3.09;100.00;103389.78;4908485;28;20047;-75
2022/01/12 01:02:23;;;;;;;184.13;64.72;;;;;;;3.14;100.00;103394.81;4923527;28;20706;-75
2022/01/12 01:04:48;;;;;;;207.63;67.57;;;;;;;3.09;100.00;103397.78;4909763;28;20507;-75
2022/01/12 01:07:14;;;;;;;198.20;67.07;;;;;;;3.13;100.00;103405.56;4908722;28;20034;-77
2022/01/12 01:09:44;;;;;;;220.07;66.38;;;;;;;3.16;100.00;103398.22;4922857;28;20034;-77
2022/01/12 01:12:10;;;;;;;201.77;65.60;;;;;;;3.22;100.00;103405.78;4913316;28;20130;-75
2022/01/12 01:15:01;;;;;;;217.55;66.30;;;;;;;3.26;100.00;103406.44;4924544;28;20038;-75
2022/01/12 01:25:33;;;;;;;210.90;64.97;;;;;;;3.24;100.00;103429.69;4926022;28;20113;-76
2022/01/12 01:28:00;;;;;;;224.80;69.57;;;;;;;3.22;100.00;103442.25;4917214;28;20988;-75
2022/01/12 01:30:26;;;;;;;219.80;64.93;;;;;;;3.28;100.00;103452.50;4915789;28;20058;-76
2022/01/12 01:32:51;;;;;;;218.68;65.15;;;;;;;3.31;100.00;103468.28;4924334;28;20037;-76
2022/01/12 01:35:18;;;;;;;214.63;66.25;;;;;;;3.36;100.00;103482.13;4911219;28;20054;-76
2022/01/12 01:37:44;;;;;;;248.30;68.43;;;;;;;3.33;100.00;103479.66;4940404;28;20038;-76
2022/01/12 01:40:10;;;;;;;210.00;66.00;;;;;;;3.36;100.00;103482.13;4921612;28;20117;-76
2022/01/12 01:42:56;;;;;;;256.60;66.80;;;;;;;3.28;100.00;103485.31;4916674;28;20526;-76
2022/01/12 01:53:55;;;;;;;305.80;65.75;;;;;;;3.30;100.00;103499.41;4902136;28;20266;-76
2022/01/12 01:56:21;;;;;;;269.08;65.63;;;;;;;3.32;100.00;103497.47;4898784;28;20055;-76
2022/01/12 01:58:47;;;;;;;273.23;65.18;;;;;;;3.35;100.00;103496.44;4892682;28;20043;-76
2022/01/12 02:01:13;;;;;;;268.65;68.72;;;;;;;3.35;100.00;103507.09;4925606;28;20047;-76
2022/01/12 02:03:40;;;;;;;321.23;67.03;;;;;;;3.40;100.00;103514.75;4924943;28;20034;-76
2022/01/12 02:06:07;;;;;;;287.42;64.93;;;;;;;3.37;100.00;103515.84;4908255;28;20687;-76
2022/01/12 02:08:33;;;;;;;338.38;68.13;;;;;;;3.42;100.00;103521.72;4924788;28;21040;-76
2022/01/12 02:10:59;;;;;;;304.60;66.25;;;;;;;3.41;100.00;103525.34;4907393;28;20057;-76
2022/01/12 02:13:25;;;;;;;283.95;64.93;;;;;;;3.38;100.00;103538.88;4893324;28;20240;-77
2022/01/12 02:15:51;;;;;;;294.70;63.90;;;;;;;3.45;100.00;103540.16;4923413;28;20031;-76
2022/01/12 02:18:31;;;;;;;287.77;64.85;;;;;;;3.40;100.00;103536.94;4911457;28;20059;-76
2022/01/12 02:40:21;;;;;;;209.60;58.50;;;;;;;3.50;100.00;103564.69;4919565;28;20166;-76
2022/01/12 02:42:56;;;;;;;242.00;60.47;;;;;;;3.51;100.00;103555.78;4917675;28;20051;-76
2022/01/12 02:53:40;;;;;;;221.00;58.88;;;;;;;3.45;100.00;103513.53;4894240;28;21278;-76
2022/01/12 02:56:07;;;;;;;218.27;60.60;;;;;;;3.50;100.00;103514.06;4927643;28;20660;-76
2022/01/12 02:58:33;;;;;;;174.85;57.15;;;;;;;3.53;100.00;103508.53;4924254;28;20795;-76
2022/01/12 03:01:19;;;;;;;201.38;59.05;;;;;;;3.51;100.00;103501.59;4900167;28;20055;-75
2022/01/12 03:03:46;;;;;;;206.93;60.28;;;;;;;3.48;100.00;103505.34;4929100;28;20042;-75
2022/01/12 03:06:17;;;;;;;217.32;59.35;;;;;;;3.46;100.00;103503.72;4912547;28;20146;-75
2022/01/12 03:08:43;;;;;;;226.63;60.72;;;;;;;3.48;100.00;103510.66;4927614;28;21690;-75
2022/01/12 03:11:11;;;;;;;230.65;60.53;;;;;;;3.51;100.00;103513.13;4910455;28;20086;-76
2022/01/12 03:13:36;;;;;;;284.05;66.20;;;;;;;3.51;100.00;103523.78;4926755;28;20061;-76
2022/01/12 03:16:12;;;;;;;220.52;60.20;;;;;;;3.51;100.00;103533.56;4925246;28;20030;-75
2022/01/12 03:18:37;;;;;;;225.98;60.78;;;;;;;3.49;100.00;103519.50;4908791;28;20146;-76
2022/01/12 03:21:03;;;;;;;227.68;63.08;;;;;;;3.46;100.00;103517.88;4926290;28;20038;-76
2022/01/12 03:23:29;;;;;;;222.95;61.63;;;;;;;3.44;100.00;103527.81;4907275;28;20074;-75
2022/01/12 03:25:54;;;;;;;206.50;60.38;;;;;;;3.49;100.00;103531.03;4926629;28;20033;-75
2022/01/12 03:28:20;;;;;;;221.52;62.08;;;;;;;3.45;100.00;103534.84;4925615;28;20038;-75
2022/01/12 03:30:54;;;;;;;214.65;58.80;;;;;;;3.38;100.00;103533.53;4910648;28;20085;-75
2022/01/12 03:33:39;;;;;;;217.02;58.10;;;;;;;3.28;100.00;103533.28;4910957;28;20039;-75
2022/01/12 03:38:59;;;;;;;189.45;54.97;;;;;;;2.87;100.00;103549.22;4925938;28;20519;-75
2022/01/12 03:41:27;;;;;;;172.02;51.60;;;;;;;2.72;100.00;103544.84;4913219;28;20141;-76
2022/01/12 03:43:54;;;;;;;196.95;56.58;;;;;;;2.57;100.00;103550.19;4926637;28;20038;-75
2022/01/12 03:46:22;;;;;;;256.95;59.30;;;;;;;2.55;100.00;103548.56;4926004;28;20030;-75
2022/01/12 03:48:47;;;;;;;228.82;57.13;;;;;;;2.50;100.00;103540.84;4910758;28;20113;-76
2022/01/12 03:51:13;;;;;;;221.00;56.25;;;;;;;2.48;100.00;103548.06;4910120;28;20055;-76
2022/01/12 03:53:38;;;;;;;277.02;59.17;;;;;;;2.37;100.00;103530.09;4910159;28;20053;-76
2022/01/12 03:56:04;;;;;;;320.00;58.30;;;;;;;2.49;100.00;103539.16;4924852;28;20555;-76
2022/01/12 03:58:29;;;;;;;357.52;58.20;;;;;;;2.51;100.00;103545.22;4927799;28;20471;-76
2022/01/12 04:00:54;;;;;;;468.88;62.50;;;;;;;2.50;100.00;103546.19;4912226;28;21220;-76
2022/01/12 04:03:20;;;;;;;376.85;56.95;;;;;;;2.51;100.00;103558.53;4926419;28;20126;-77
2022/01/12 04:08:37;;;;;;;411.20;57.28;;;;;;;2.51;100.00;103547.88;4926048;28;20058;-77
2022/01/12 04:11:02;;;;;;;568.22;63.33;;;;;;;2.50;100.00;103556.81;4920647;28;20034;-76
2022/01/12 04:13:29;;;;;;;412.25;55.35;;;;;;;2.49;100.00;103560.44;4914803;28;20050;-77
2022/01/12 04:15:58;;;;;;;292.25;50.90;;;;;;;2.51;100.00;103560.34;4925977;28;21067;-77
2022/01/12 04:18:23;;;;;;;298.77;50.50;;;;;;;2.48;100.00;103558.72;4911324;28;20058;-76
2022/01/12 04:20:50;;;;;;;296.73;49.90;;;;;;;2.45;100.00;103558.88;4926348;28;20039;-77
2022/01/12 04:23:18;;;;;;;390.58;54.78;;;;;;;2.38;100.00;103557.56;4922614;28;20046;-76
2022/01/12 04:25:49;;;;;;;346.08;50.53;;;;;;;2.35;100.00;103557.72;4914652;28;20108;-77
2022/01/12 04:28:15;;;;;;;232.07;45.03;;;;;;;2.31;100.00;103556.22;4925530;28;20027;-77
2022/01/12 04:30:41;;;;;;;388.50;53.33;;;;;;;2.20;100.00;103554.19;4913443;28;20130;-76
2022/01/12 04:33:07;;;;;;;303.60;45.83;;;;;;;2.20;100.00;103561.31;4928804;28;20133;-76
2022/01/12 04:35:46;;;;;;;311.00;50.33;;;;;;;2.23;100.00;103559.34;4901620;28;20690;-76
2022/01/12 04:38:12;;;;;;;244.75;46.78;;;;;;;2.22;100.00;103552.31;4928214;28;20039;-76
2022/01/12 04:40:37;;;;;;;278.50;49.13;;;;;;;2.19;100.00;103554.31;4925356;28;20510;-77
2022/01/12 04:43:03;;;;;;;240.70;47.17;;;;;;;2.15;100.00;103546.50;4910304;28;20118;-76
2022/01/12 04:50:20;;;;;;;143.32;43.38;;;;;;;2.08;100.00;103550.47;4925375;28;20050;-76
2022/01/12 04:52:46;;;;;;;284.50;47.42;;;;;;;2.01;100.00;103548.28;4925829;28;20058;-76
2022/01/12 04:55:11;;;;;;;234.50;44.28;;;;;;;1.98;100.00;103554.63;4910644;28;20105;-76
2022/01/12 04:57:37;;;;;;;312.42;48.08;;;;;;;1.94;100.00;103554.91;4925727;28;20039;-76
2022/01/12 05:00:14;;;;;;;207.80;42.35;;;;;;;1.87;100.00;103549.09;4911869;28;20061;-76
2022/01/12 05:08:18;;;;;;;171.05;39.83;;;;;;;1.64;100.00;103545.94;4925469;28;20027;-75
2022/01/12 05:13:28;;;;;;;242.73;41.20;;;;;;;1.48;100.00;103550.44;4910225;28;20138;-75
2022/01/12 05:15:54;;;;;;;130.27;38.33;;;;;;;1.42;100.00;103561.41;4925151;28;20129;-76
2022/01/12 05:18:19;;;;;;;108.05;37.90;;;;;;;1.39;100.00;103572.19;4891549;28;20058;-76
2022/01/12 05:20:46;;;;;;;133.88;40.33;;;;;;;1.35;100.00;103573.31;4925585;28;20035;-76
2022/01/12 05:23:12;;;;;;;188.63;39.55;;;;;;;1.38;100.00;103581.97;4923047;28;20109;-76
2022/01/12 05:25:37;;;;;;;159.25;39.80;;;;;;;1.42;100.00;103587.97;4915984;28;20086;-76
2022/01/12 05:28:03;;;;;;;106.85;37.83;;;;;;;1.45;100.00;103587.78;4926571;28;20173;-76
2022/01/12 05:30:28;;;;;;;114.38;38.28;;;;;;;1.48;100.00;103595.59;4908392;28;20186;-76
2022/01/12 05:32:54;;;;;;;191.85;43.67;;;;;;;1.51;100.00;103597.19;4925419;28;20054;-76
2022/01/12 05:35:20;;;;;;;146.57;41.55;;;;;;;1.50;100.00;103599.00;4917925;28;20031;-75
2022/01/12 05:37:46;;;;;;;116.35;38.75;;;;;;;1.42;100.00;103593.28;4930561;28;20055;-76
2022/01/12 05:40:14;;;;;;;130.13;40.20;;;;;;;1.31;100.00;103600.97;4923012;28;20035;-76
2022/01/12 05:42:39;;;;;;;110.93;39.70;;;;;;;1.28;100.00;103606.47;4908005;28;20070;-76
2022/01/12 05:45:07;;;;;;;132.88;40.58;;;;;;;1.25;100.00;103612.78;4921847;28;20046;-75
2022/01/12 05:50:01;;;;;;;136.38;42.17;;;;;;;1.13;100.00;103609.00;4915534;28;20479;-76
2022/01/12 05:52:26;;;;;;;151.65;43.15;;;;;;;1.10;100.00;103598.56;4924157;28;20090;-76
2022/01/12 05:54:51;;;;;;;140.70;42.75;;;;;;;1.15;100.00;103604.47;4906054;28;20515;-76
2022/01/12 05:57:17;;;;;;;409.58;53.33;;;;;;;1.23;100.00;103603.19;4926707;28;20078;-76
2022/01/12 05:59:43;;;;;;;180.38;40.72;;;;;;;1.26;100.00;103614.50;4919108;28;20042;-76
2022/01/12 06:02:08;;;;;;;210.82;43.15;;;;;;;1.22;100.00;103618.25;4900655;28;20066;-76
2022/01/12 06:04:33;;;;;;;166.10;40.33;;;;;;;1.21;100.00;103621.00;4924576;28;20027;-76
2022/01/12 06:07:01;;;;;;;244.48;44.65;;;;;;;1.18;100.00;103625.53;4910909;28;20530;-77
2022/01/12 06:09:27;;;;;;;208.82;43.15;;;;;;;1.13;100.00;103624.94;4925081;28;20027;-76
2022/01/12 06:11:53;;;;;;;135.15;39.88;;;;;;;1.09;100.00;103626.06;4898968;28;20102;-76
2022/01/12 06:14:20;;;;;;;154.05;38.45;;;;;;;1.09;100.00;103634.00;4921772;28;20035;-76
2022/01/12 06:16:45;;;;;;;212.13;43.15;;;;;;;1.11;100.00;103639.22;4925757;28;20086;-76
2022/01/12 06:19:11;;;;;;;323.70;47.08;;;;;;;1.18;100.00;103632.66;4895151;28;20141;-76
2022/01/12 06:21:37;;;;;;;183.93;38.65;;;;;;;1.30;100.00;103642.63;4930357;28;20038;-76
2022/01/12 06:24:02;;;;;;;253.23;43.17;;;;;;;1.25;100.00;103638.50;4912236;28;20042;-76
2022/01/12 06:26:28;;;;;;;219.50;42.30;;;;;;;1.32;100.00;103645.19;4929004;28;20037;-76
2022/01/12 06:29:39;;;;;;;141.05;38.60;;;;;;;1.27;100.00;103649.91;4928713;28;20133;-76
2022/01/12 06:31:49;;;;;;;244.07;43.80;;;;;;;1.22;100.00;103654.59;4918533;28;20053;-76
2022/01/12 06:34:15;;;;;;;220.60;42.25;;;;;;;1.19;100.00;103648.50;4926734;28;20026;-76
2022/01/12 06:36:41;;;;;;;169.27;38.58;;;;;;;1.21;100.00;103652.88;4914297;28;20103;-76
2022/01/12 06:39:09;;;;;;;122.47;34.25;;;;;;;1.23;100.00;103656.28;4926619;28;20116;-76
2022/01/12 06:41:36;;;;;;;78.68;32.30;;;;;;;1.17;100.00;103652.19;4921991;28;20073;-76
2022/01/12 06:44:02;;;;;;;232.00;40.00;;;;;;;1.07;100.00;103649.16;4916895;28;20054;-76
2022/01/12 06:46:31;;;;;;;236.18;40.75;;;;;;;1.02;100.00;103651.22;4927396;28;20141;-76
2022/01/12 06:48:57;;;;;;;138.35;35.17;;;;;;;0.94;100.00;103648.09;4912015;28;20169;-76
2022/01/12 06:51:23;;;;;;;208.57;38.35;;;;;;;0.84;100.00;103657.47;4928855;28;20502;-76
2022/01/12 06:53:49;;;;;;;199.68;37.60;;;;;;;0.78;100.00;103652.50;4905770;28;20086;-76
2022/01/12 06:56:17;;;;;;;151.73;34.72;;;;;;;0.84;100.00;103660.13;4917171;28;20145;-77
2022/01/12 06:58:46;;;;;;;213.93;37.42;;;;;;;0.88;100.00;103672.31;4911853;28;20122;-77
2022/01/12 07:01:12;;;;;;;186.23;36.75;;;;;;;0.89;100.00;103671.38;4893751;28;20065;-77
2022/01/12 07:03:37;;;;;;;211.55;37.67;;;;;;;0.89;100.00;103679.34;4925104;28;20042;-77
2022/01/12 07:06:04;;;;;;;182.93;36.92;;;;;;;0.89;100.00;103679.34;4917689;28;20063;-77
2022/01/12 07:08:29;;;;;;;273.52;37.90;;;;;;;0.90;100.00;103681.03;4917375;28;20086;-77
2022/01/12 07:10:55;;;;;;;313.90;39.90;;;;;;;0.94;100.00;103682.59;4927919;28;20041;-77
2022/01/12 07:13:20;;;;;;;347.00;43.53;;;;;;;0.92;100.00;103681.84;4910019;28;20526;-77
2022/01/12 07:15:46;;;;;;;147.65;32.67;;;;;;;0.95;100.00;103687.84;4927042;28;20035;-77
2022/01/12 07:18:11;;;;;;;244.50;37.05;;;;;;;0.97;100.00;103693.06;4924176;28;20055;-76
2022/01/12 07:20:37;;;;;;;277.17;40.83;;;;;;;0.93;100.00;103696.81;4921702;28;20057;-76
2022/01/12 07:23:03;;;;;;;215.77;36.00;;;;;;;0.91;100.00;103693.38;4940763;28;20151;-76
2022/01/12 07:25:29;;;;;;;224.50;35.25;;;;;;;0.94;100.00;103698.50;4908974;28;20066;-77
2022/01/12 07:27:54;;;;;;;178.75;34.40;;;;;;;0.92;100.00;103705.72;4925685;28;20043;-77
2022/01/12 07:30:22;;;;;;;275.45;36.60;;;;;;;0.95;100.00;103706.41;4891941;28;20185;-77
2022/01/12 07:32:48;;;;;;;151.18;32.67;;;;;;;0.91;100.00;103704.88;4923749;28;20109;-77
2022/01/12 07:35:14;;;;;;;149.27;32.17;;;;;;;0.97;100.00;103719.59;4923067;28;20181;-78
2022/01/12 07:37:39;;;;;;;158.50;31.75;;;;;;;0.93;100.00;103724.19;4909867;28;20058;-77
2022/01/12 07:40:05;;;;;;;197.98;36.25;;;;;;;0.94;100.00;103720.59;4923797;28;20117;-78
2022/01/12 07:42:30;;;;;;;250.90;36.38;;;;;;;0.96;100.00;103728.50;4894069;28;20058;-78
2022/01/12 07:45:00;;;;;;;299.50;39.88;;;;;;;0.84;100.00;103724.69;4925056;28;20182;-78
2022/01/12 07:47:27;;;;;;;149.60;30.85;;;;;;;0.94;100.00;103730.38;4924738;28;20594;-77
2022/01/12 07:49:52;;;;;;;178.57;32.28;;;;;;;0.93;100.00;103731.31;4922590;28;20277;-76
2022/01/12 07:52:18;;;;;;;246.32;34.22;;;;;;;0.92;100.00;103721.66;4923909;28;20069;-76
2022/01/12 07:54:43;;;;;;;153.63;30.90;;;;;;;0.94;100.00;103717.94;4893114;28;20138;-77
2022/01/12 07:57:09;;;;;;;154.10;31.25;;;;;;;0.96;100.00;103707.28;4923329;28;20073;-77
2022/01/12 07:59:34;;;;;;;121.65;27.52;;;;;;;0.93;100.00;103713.59;4923714;28;20043;-77
2022/01/12 08:02:00;;;;;;;138.45;29.00;;;;;;;1.02;100.00;103716.69;4908111;28;20074;-77
2022/01/12 08:04:25;;;;;;;97.88;28.17;;;;;;;1.07;100.00;103715.53;4923525;28;20046;-76
2022/01/12 08:06:51;;;;;;;133.25;28.35;;;;;;;1.05;100.00;103721.84;4909002;28;20050;-76
2022/01/12 08:09:16;;;;;;;212.70;32.58;;;;;;;1.02;100.00;103717.56;4925361;28;20042;-76
2022/01/12 08:11:42;;;;;;;150.70;28.67;;;;;;;1.01;100.00;103736.22;4923314;28;20424;-76
2022/01/12 08:14:07;;;;;;;192.40;31.63;;;;;;;0.97;100.00;103735.53;4908349;28;20561;-76
2022/01/12 08:16:33;;;;;;;175.68;29.85;;;;;;;0.94;100.00;103731.22;4925662;28;20034;-76
2022/01/12 08:18:58;;;;;;;177.93;29.45;;;;;;;0.98;100.00;103737.22;4911107;28;20047;-76
2022/01/12 08:21:24;;;;;;;82.18;26.38;;;;;;;1.01;100.00;103747.69;4925590;28;20041;-75
2022/01/12 08:23:49;;;;;;;113.22;27.83;;;;;;;1.10;100.00;103752.53;4927799;28;20031;-78
2022/01/12 08:26:15;;;;;;;150.07;28.60;;;;;;;1.15;100.00;103753.13;4910174;28;20407;-76
2022/01/12 08:28:40;;;;;;;117.30;28.80;;;;;;;1.13;100.00;103757.69;4926451;28;20031;-75
2022/01/12 08:31:06;;;;;;;139.82;29.20;;;;;;;1.23;100.00;103765.16;4897057;28;20161;-75
2022/01/12 08:33:32;;;;;;;103.88;26.92;;;;;;;1.26;100.00;103779.13;4927577;28;20045;-75
2022/01/12 08:35:58;;;;;;;204.80;32.55;;;;;;;1.29;100.00;103767.50;4926069;28;20724;-75
2022/01/12 08:38:23;;;;;;;103.82;28.48;;;;;;;1.29;100.00;103775.47;4911073;28;20059;-76
2022/01/12 08:40:49;;;;;;;636.55;65.00;;;;;;;1.33;100.00;103771.72;4909112;28;21447;-76
2022/01/12 08:43:14;;;;;;;102.40;24.95;;;;;;;1.35;100.00;103777.81;4909638;28;20161;-75
2022/01/12 08:45:40;;;;;;;72.90;22.83;;;;;;;1.42;100.00;103777.41;4923969;28;20038;-75
2022/01/12 08:48:05;;;;;;;104.43;24.50;;;;;;;1.37;100.00;103790.09;4925063;28;20069;-76
2022/01/12 08:50:31;;;;;;;95.15;23.85;;;;;;;1.41;100.00;103788.13;4907740;28;20055;-75
2022/01/12 08:52:56;;;;;;;75.72;23.35;;;;;;;1.52;100.00;103796.38;4925788;28;20529;-76
2022/01/12 08:55:23;;;;;;;145.85;24.52;;;;;;;1.54;100.00;103791.81;4908707;28;20110;-77
2022/01/12 08:57:50;;;;;;;108.25;22.33;;;;;;;1.57;100.00;103789.00;4924179;28;20177;-76
2022/01/12 09:00:17;;;;;;;91.05;22.20;;;;;;;1.58;100.00;103789.84;4925072;28;22741;-75
2022/01/12 09:02:42;;;;;;;116.13;23.45;;;;;;;1.67;100.00;103794.69;4910650;28;20078;-76
2022/01/12 09:05:09;;;;;;;127.93;22.67;;;;;;;1.72;100.00;103792.66;4921134;28;20031;-76
2022/01/12 09:07:34;;;;;;;102.70;21.35;;;;;;;1.78;100.00;103786.16;4908804;28;20177;-75
2022/01/12 09:10:00;;;;;;;148.63;24.35;;;;;;;1.82;100.00;103787.69;4924302;28;20105;-77
2022/01/12 09:12:26;;;;;;;69.90;20.40;;;;;;;1.88;100.00;103793.53;4920475;28;20110;-76
2022/01/12 09:14:53;;;;;;;119.38;21.02;;;;;;;2.01;100.00;103801.72;4913005;28;20086;-77
2022/01/12 09:17:20;;;;;;;59.88;19.52;;;;;;;2.13;100.00;103806.34;4924185;28;20039;-76
2022/01/12 09:19:46;;;;;;;80.13;19.65;;;;;;;2.19;100.00;103812.28;4906506;28;20055;-75
2022/01/12 09:22:12;;;;;;;157.88;25.88;;;;;;;2.23;100.00;103819.13;4920034;28;20045;-75
2022/01/12 09:24:37;;;;;;;102.82;22.58;;;;;;;2.31;100.00;103820.41;4919023;28;20031;-74
2022/01/12 09:27:03;;;;;;;75.72;21.63;;;;;;;2.43;100.00;103832.19;4927408;28;20380;-75
2022/01/12 09:29:28;;;;;;;68.47;22.20;;;;;;;2.44;100.00;103833.88;4922363;28;20035;-74
2022/01/12 09:31:54;;;;;;;153.25;27.45;;;;;;;2.51;100.00;103829.94;4907652;28;20055;-75
2022/01/12 09:34:19;;;;;;;82.95;23.05;;;;;;;2.63;100.00;103836.34;4924462;28;20123;-74
2022/01/12 09:36:45;;;;;;;112.43;23.48;;;;;;;2.69;100.00;103832.50;4916790;28;20113;-76
2022/01/12 09:39:11;;;;;;;125.85;25.40;;;;;;;2.71;100.00;103827.97;4911975;28;20050;-74
2022/01/12 09:41:36;;;;;;;81.03;22.25;;;;;;;2.75;100.00;103837.47;4936928;28;20552;-75
2022/01/12 09:44:03;;;;;;;93.53;23.15;;;;;;;2.89;100.00;103845.53;4907432;28;20063;-74
2022/01/12 09:46:28;;;;;;;119.55;23.48;;;;;;;2.89;100.00;103842.88;4905764;28;20046;-74
2022/01/12 09:48:55;;;;;;;121.50;21.70;;;;;;;3.00;100.00;103848.41;4915959;28;20149;-76
2022/01/12 09:51:22;;;;;;;108.65;20.80;;;;;;;3.11;100.00;103847.78;4927566;28;20051;-73
2022/01/12 09:53:49;;;;;;;152.85;22.23;;;;;;;3.22;100.00;103839.16;4924174;28;20043;-74
2022/01/12 09:56:23;;;;;;;96.30;18.60;;;;;;;3.30;100.00;103839.53;4909566;28;20058;-73
2022/01/12 09:58:54;;;;;;;87.72;20.42;;;;;;;3.45;100.00;103838.66;4922501;28;20054;-73
2022/01/12 10:01:39;;;;;;;68.78;17.65;;;;;;;3.61;100.00;103843.03;4921023;28;20141;-76
2022/01/12 10:04:16;;;;;;;171.50;21.38;;;;;;;3.64;100.00;103854.38;4927085;28;20046;-76
2022/01/12 10:06:50;;;;;;;181.40;19.85;;;;;;;3.75;100.00;103840.38;4928248;28;20092;-76
2022/01/12 10:09:17;;;;;;;111.05;17.08;;;;;;;3.80;100.00;103844.47;4915122;28;20114;-76
2022/01/12 10:12:15;;;;;;;161.27;18.15;;;;;;;3.91;100.00;103857.16;4929527;28;20709;-76
2022/01/12 10:14:50;;;;;;;156.95;16.40;;;;;;;3.97;100.00;103862.13;4913627;28;20142;-76
2022/01/12 10:17:29;;;;;;;146.55;16.20;;;;;;;4.00;100.00;103856.59;4927374;28;20538;-77
2022/01/12 10:20:10;;;;;;;91.90;12.05;;;;;;;4.07;100.00;103849.91;4910838;28;20050;-77
2022/01/12 10:22:37;;;;;;;73.57;12.02;;;;;;;4.19;100.00;103856.28;4925181;28;20028;-73
2022/01/12 10:25:22;;;;;;;121.35;13.18;;;;;;;4.18;100.00;103864.41;4919876;28;20126;-78
2022/01/12 10:27:48;;;;;;;144.00;13.98;;;;;;;4.14;100.00;103862.84;4917677;28;20082;-78
2022/01/12 10:30:25;;;;;;;86.05;11.88;;;;;;;4.15;100.00;103838.75;4926728;28;20038;-72
2022/01/12 10:33:05;;;;;;;97.93;11.98;;;;;;;4.19;100.00;103839.41;4912205;28;20169;-72
2022/01/12 10:35:34;;;;;;;92.57;11.77;;;;;;;4.41;100.00;103850.41;4925415;28;20050;-72
2022/01/12 10:38:10;;;;;;;34.80;10.63;;;;;;;4.50;100.00;103833.81;4926675;28;20094;-72
2022/01/12 10:41:03;;;;;;;111.45;12.10;;;;;;;4.59;100.00;103829.69;4923342;28;20027;-73
2022/01/12 10:43:31;;;;;;;84.93;10.88;;;;;;;4.66;100.00;103832.81;4921387;28;20043;-73
2022/01/12 10:45:57;;;;;;;72.28;10.95;;;;;;;4.79;100.00;103837.25;4918918;28;21221;-72
2022/01/12 10:48:26;;;;;;;40.85;10.35;;;;;;;4.87;100.00;103836.72;4929818;28;20117;-73
2022/01/12 10:50:58;;;;;;;59.65;9.70;;;;;;;4.85;100.00;103833.31;4912484;28;20054;-75
2022/01/12 10:53:33;;;;;;;44.00;10.07;;;;;;;4.89;100.00;103828.63;4931499;28;20099;-74
2022/01/12 10:56:12;;;;;;;70.32;10.52;;;;;;;4.92;100.00;103828.44;4912197;28;20047;-75
2022/01/12 10:58:40;;;;;;;77.80;10.75;;;;;;;4.91;100.00;103838.22;4932376;28;20042;-74
2022/01/12 11:01:06;;;;;;;81.32;10.52;;;;;;;4.89;100.00;103841.97;4925954;28;20668;-74
2022/01/12 11:03:32;;;;;;;77.45;10.15;;;;;;;4.76;100.00;103840.09;4907289;28;20193;-73
2022/01/12 11:05:58;;;;;;;65.18;10.70;;;;;;;4.83;100.00;103843.22;4923476;28;20471;-73
2022/01/12 11:08:25;;;;;;;81.85;11.20;;;;;;;4.98;100.00;103836.00;4910414;28;20055;-73
2022/01/12 11:10:53;;;;;;;67.32;11.52;;;;;;;5.14;100.00;103838.50;4937950;28;20034;-73
2022/01/12 11:13:18;;;;;;;87.40;13.48;;;;;;;5.20;100.00;103822.94;4916293;28;20035;-73
2022/01/12 11:15:44;;;;;;;63.47;11.68;;;;;;;5.25;100.00;103826.13;4909570;28;20066;-74
2022/01/12 11:18:10;;;;;;;83.22;13.23;;;;;;;5.35;100.00;103825.50;4920735;28;20719;-75
2022/01/12 11:20:37;;;;;;;46.30;14.23;;;;;;;5.50;100.00;103825.28;4906225;28;20061;-74
2022/01/12 11:23:11;;;;;;;74.07;14.18;;;;;;;5.60;100.00;103828.19;4934225;28;20165;-75
2022/01/12 11:25:49;;;;;;;65.75;12.90;;;;;;;5.68;100.00;103822.28;4914654;28;20085;-74
2022/01/12 11:28:16;;;;;;;57.95;13.05;;;;;;;5.64;100.00;103828.81;4912090;28;20046;-74
2022/01/12 11:30:45;;;;;;;50.63;12.45;;;;;;;5.71;100.00;103824.75;4928483;28;20038;-73
2022/01/12 11:33:12;;;;;;;43.55;11.60;;;;;;;5.70;100.00;103813.22;4912434;28;20059;-74
2022/01/12 11:35:44;;;;;;;25.13;10.57;;;;;;;5.82;100.00;103815.97;4926957;28;20041;-73
2022/01/12 11:38:27;;;;;;;41.53;11.20;;;;;;;5.86;100.00;103820.13;4909716;28;20051;-75
2022/01/12 11:40:55;;;;;;;28.38;10.07;;;;;;;5.99;100.00;103807.63;4924870;28;20030;-73
2022/01/12 11:43:31;;;;;;;33.00;9.90;;;;;;;5.97;100.00;103813.09;4920562;28;20027;-74
2022/01/12 11:46:06;;;;;;;58.85;11.55;;;;;;;6.03;100.00;103810.94;4912741;28;20047;-74
2022/01/12 11:48:45;;;;;;;42.83;10.88;;;;;;;6.00;100.00;103806.66;4907624;28;20819;-74
2022/01/12 11:51:12;;;;;;;27.30;10.48;;;;;;;6.01;100.00;103802.19;4894919;28;20064;-75
2022/01/12 11:53:51;;;;;;;50.58;12.18;;;;;;;5.96;100.00;103795.31;4912295;28;20070;-72
2022/01/12 11:56:23;;;;;;;22.38;11.15;;;;;;;5.96;100.00;103805.16;4909791;28;20043;-73
2022/01/12 11:59:06;;;;;;;21.63;11.18;;;;;;;6.03;100.00;103802.91;4928382;28;20061;-73
2022/01/12 12:01:44;;;;;;;35.65;11.20;;;;;;;5.95;100.00;103812.34;4925380;28;20038;-75
2022/01/12 12:04:22;;;;;;;36.63;11.48;;;;;;;6.04;100.00;103807.28;4916555;28;20074;-74
2022/01/12 12:06:48;;;;;;;26.02;11.73;;;;;;;6.05;100.00;103823.25;4941479;28;20103;-74
2022/01/12 12:09:18;;;;;;;33.78;11.80;;;;;;;6.05;100.00;103831.28;4908292;28;20193;-74
2022/01/12 12:11:51;;;;;;;48.42;12.77;;;;;;;5.80;100.00;103826.78;4923538;28;20081;-73
2022/01/12 12:14:17;;;;;;;32.20;12.10;;;;;;;5.82;100.00;103824.84;4910587;28;20118;-74
2022/01/12 12:16:43;;;;;;;30.98;11.25;;;;;;;5.74;100.00;103838.78;4904111;28;24085;-74
2022/01/12 12:19:08;;;;;;;32.70;12.90;;;;;;;5.71;100.00;103838.13;4919690;28;20038;-74
2022/01/12 12:21:34;;;;;;;45.88;13.18;;;;;;;5.75;100.00;103831.59;4905562;28;20138;-75